Élőkép

Információk

Albatrosz Repülő Egyesület
8000 Székesfehérvár,
Radványi utca 6.

Adószám:
19092908-2-07

Bankszámla szám:
Budapest Bank
10102952-01361819-00000001

Telefon: +36 30 9598-897

Telephey: Börgönd repülőtér

Börgöndi repülõtér

LHBP METAR/TAF

[source: ADDS]
METAR
TAF LHBP 011100Z 0112/0212 VRB03KT CAVOK TEMPO 0112/0203 8000 -RA -SHRA FEW030 BKN100 BECMG 0200/0203 8000 BKN038 BKN055 TEMPO 0203/0212 3000 -RA -RADZ BR SCT008 BKN017 BKN040 TAF
TAF LHBP 011100Z 0112/0212 VRB03KT CAVOK TEMPO 0112/0203 8000 -RA -SHRA FEW030 BKN100 BECMG 0200/0203 8000 BKN038 BKN055 TEMPO 0203/0212 3000 -RA -RADZ BR SCT008 BKN017 BKN040 =
SR / SS: 04:47 / 16:27 UTC (Börgönd 2014-10-01)
Hungarian Chinese (Simplified) Croatian Czech English Finnish French German Hebrew Italian Japanese Polish Portuguese Romanian Russian Serbian Slovak Slovenian Spanish

Belépés tagoknak